sensor_id;sensor_type;location;lat;lon;timestamp;pressure;altitude;pressure_sealevel;temperature;humidity
36328;BME280;22354;50.012;8.264;2022-10-16T00:00:15;100327.44;;;14.39;100.00
36328;BME280;22354;50.012;8.264;2022-10-16T00:02:40;100323.72;;;14.40;100.00
36328;BME280;22354;50.012;8.264;2022-10-16T00:05:05;100318.13;;;14.41;100.00
36328;BME280;22354;50.012;8.264;2022-10-16T00:07:31;100322.94;;;14.31;100.00
36328;BME280;22354;50.012;8.264;2022-10-16T00:09:56;100318.56;;;14.30;100.00
36328;BME280;22354;50.012;8.264;2022-10-16T00:12:21;100323.34;;;14.43;100.00
36328;BME280;22354;50.012;8.264;2022-10-16T00:14:46;100332.88;;;14.31;100.00
36328;BME280;22354;50.012;8.264;2022-10-16T00:17:12;100344.44;;;14.39;100.00
36328;BME280;22354;50.012;8.264;2022-10-16T00:19:37;100332.88;;;14.31;100.00
36328;BME280;22354;50.012;8.264;2022-10-16T00:22:02;100319.75;;;14.28;100.00
36328;BME280;22354;50.012;8.264;2022-10-16T00:24:28;100332.22;;;14.29;100.00
36328;BME280;22354;50.012;8.264;2022-10-16T00:26:53;100324.03;;;14.45;100.00
36328;BME280;22354;50.012;8.264;2022-10-16T00:29:18;100326.13;;;14.35;100.00
36328;BME280;22354;50.012;8.264;2022-10-16T00:31:44;100324.97;;;14.29;100.00
36328;BME280;22354;50.012;8.264;2022-10-16T00:34:09;100338.00;;;14.49;100.00
36328;BME280;22354;50.012;8.264;2022-10-16T00:36:34;100328.25;;;14.39;100.00
36328;BME280;22354;50.012;8.264;2022-10-16T00:39:00;100329.06;;;14.48;100.00
36328;BME280;22354;50.012;8.264;2022-10-16T00:41:27;100315.34;;;14.35;100.00
36328;BME280;22354;50.012;8.264;2022-10-16T00:43:58;100312.47;;;14.36;100.00
36328;BME280;22354;50.012;8.264;2022-10-16T00:49:09;100317.78;;;14.44;100.00
36328;BME280;22354;50.012;8.264;2022-10-16T00:54:02;100334.84;;;14.37;100.00
36328;BME280;22354;50.012;8.264;2022-10-16T00:56:29;100339.94;;;14.32;100.00
36328;BME280;22354;50.012;8.264;2022-10-16T00:58:54;100343.66;;;14.31;100.00
36328;BME280;22354;50.012;8.264;2022-10-16T01:01:19;100351.03;;;14.37;100.00
36328;BME280;22354;50.012;8.264;2022-10-16T01:03:45;100364.13;;;14.40;100.00
36328;BME280;22354;50.012;8.264;2022-10-16T01:08:53;100350.38;;;14.35;100.00
36328;BME280;22354;50.012;8.264;2022-10-16T01:11:45;100348.88;;;14.32;100.00
36328;BME280;22354;50.012;8.264;2022-10-16T01:14:27;100348.09;;;14.24;100.00
36328;BME280;22354;50.012;8.264;2022-10-16T01:17:07;100353.47;;;14.24;100.00
36328;BME280;22354;50.012;8.264;2022-10-16T01:22:25;100345.44;;;14.38;100.00
36328;BME280;22354;50.012;8.264;2022-10-16T01:24:53;100321.81;;;14.26;100.00
36328;BME280;22354;50.012;8.264;2022-10-16T01:27:28;100327.06;;;14.19;100.00
36328;BME280;22354;50.012;8.264;2022-10-16T01:30:09;100329.22;;;14.24;100.00
36328;BME280;22354;50.012;8.264;2022-10-16T01:32:42;100323.47;;;14.27;100.00
36328;BME280;22354;50.012;8.264;2022-10-16T01:35:22;100335.13;;;14.19;100.00
36328;BME280;22354;50.012;8.264;2022-10-16T01:40:16;100327.75;;;14.21;100.00
36328;BME280;22354;50.012;8.264;2022-10-16T01:42:50;100334.47;;;14.17;100.00
36328;BME280;22354;50.012;8.264;2022-10-16T01:45:18;100341.53;;;14.18;100.00
36328;BME280;22354;50.012;8.264;2022-10-16T01:47:46;100311.75;;;14.20;100.00
36328;BME280;22354;50.012;8.264;2022-10-16T01:50:14;100313.44;;;14.21;100.00
36328;BME280;22354;50.012;8.264;2022-10-16T01:52:44;100313.34;;;14.29;100.00
36328;BME280;22354;50.012;8.264;2022-10-16T01:55:13;100307.22;;;14.20;100.00
36328;BME280;22354;50.012;8.264;2022-10-16T01:57:42;100302.66;;;14.21;100.00
36328;BME280;22354;50.012;8.264;2022-10-16T02:00:11;100310.41;;;14.15;100.00
36328;BME280;22354;50.012;8.264;2022-10-16T02:02:39;100305.03;;;14.15;100.00
36328;BME280;22354;50.012;8.264;2022-10-16T02:05:34;100307.72;;;14.15;100.00
36328;BME280;22354;50.012;8.264;2022-10-16T02:08:03;100296.28;;;14.13;100.00
36328;BME280;22354;50.012;8.264;2022-10-16T02:10:28;100304.19;;;14.15;100.00
36328;BME280;22354;50.012;8.264;2022-10-16T02:13:06;100302.69;;;14.12;100.00
36328;BME280;22354;50.012;8.264;2022-10-16T02:15:34;100309.13;;;14.11;100.00
36328;BME280;22354;50.012;8.264;2022-10-16T02:17:59;100310.41;;;14.15;100.00
36328;BME280;22354;50.012;8.264;2022-10-16T02:20:27;100311.06;;;14.17;100.00
36328;BME280;22354;50.012;8.264;2022-10-16T02:22:53;100309.91;;;14.20;100.00
36328;BME280;22354;50.012;8.264;2022-10-16T02:25:32;100317.47;;;14.16;100.00
36328;BME280;22354;50.012;8.264;2022-10-16T02:28:14;100317.81;;;14.22;100.00
36328;BME280;22354;50.012;8.264;2022-10-16T02:30:49;100305.34;;;14.21;100.00
36328;BME280;22354;50.012;8.264;2022-10-16T02:33:17;100306.06;;;14.14;100.00
36328;BME280;22354;50.012;8.264;2022-10-16T02:35:45;100309.22;;;14.18;100.00
36328;BME280;22354;50.012;8.264;2022-10-16T02:38:12;100302.16;;;14.17;100.00
36328;BME280;22354;50.012;8.264;2022-10-16T02:40:38;100316.16;;;14.12;100.00
36328;BME280;22354;50.012;8.264;2022-10-16T02:43:05;100322.88;;;14.16;100.00
36328;BME280;22354;50.012;8.264;2022-10-16T02:45:30;100326.34;;;14.25;100.00
36328;BME280;22354;50.012;8.264;2022-10-16T02:47:56;100321.84;;;14.17;100.00
36328;BME280;22354;50.012;8.264;2022-10-16T02:50:21;100315.34;;;14.12;100.00
36328;BME280;22354;50.012;8.264;2022-10-16T02:52:47;100303.25;;;14.08;100.00
36328;BME280;22354;50.012;8.264;2022-10-16T02:55:13;100299.03;;;14.05;100.00
36328;BME280;22354;50.012;8.264;2022-10-16T02:57:38;100299.88;;;14.06;100.00
36328;BME280;22354;50.012;8.264;2022-10-16T03:00:07;100306.78;;;14.08;100.00
36328;BME280;22354;50.012;8.264;2022-10-16T03:02:32;100303.44;;;14.06;100.00
36328;BME280;22354;50.012;8.264;2022-10-16T03:04:58;100303.44;;;14.06;100.00
36328;BME280;22354;50.012;8.264;2022-10-16T03:07:23;100295.34;;;14.06;100.00
36328;BME280;22354;50.012;8.264;2022-10-16T03:09:48;100300.25;;;14.03;100.00
36328;BME280;22354;50.012;8.264;2022-10-16T03:12:13;100304.31;;;13.99;100.00
36328;BME280;22354;50.012;8.264;2022-10-16T03:14:39;100301.44;;;14.00;100.00
36328;BME280;22354;50.012;8.264;2022-10-16T03:17:05;100306.47;;;14.03;100.00
36328;BME280;22354;50.012;8.264;2022-10-16T03:19:30;100309.81;;;14.05;100.00
36328;BME280;22354;50.012;8.264;2022-10-16T03:21:55;100299.88;;;14.06;100.00
36328;BME280;22354;50.012;8.264;2022-10-16T03:24:21;100301.56;;;14.07;100.00
36328;BME280;22354;50.012;8.264;2022-10-16T03:26:46;100296.00;;;14.08;100.00
36328;BME280;22354;50.012;8.264;2022-10-16T03:29:11;100305.09;;;14.07;100.00
36328;BME280;22354;50.012;8.264;2022-10-16T03:31:36;100313.72;;;14.26;100.00
36328;BME280;22354;50.012;8.264;2022-10-16T03:34:02;100303.69;;;14.20;100.00
36328;BME280;22354;50.012;8.264;2022-10-16T03:36:27;100309.06;;;14.20;100.00
36328;BME280;22354;50.012;8.264;2022-10-16T03:38:52;100308.94;;;14.13;100.00
36328;BME280;22354;50.012;8.264;2022-10-16T03:41:18;100312.09;;;14.16;100.00
36328;BME280;22354;50.012;8.264;2022-10-16T03:43:43;100319.34;;;14.16;100.00
36328;BME280;22354;50.012;8.264;2022-10-16T03:46:08;100319.16;;;14.17;100.00
36328;BME280;22354;50.012;8.264;2022-10-16T03:48:33;100319.66;;;14.21;100.00
36328;BME280;22354;50.012;8.264;2022-10-16T03:50:59;100318.47;;;14.24;100.00
36328;BME280;22354;50.012;8.264;2022-10-16T03:53:25;100313.16;;;14.30;100.00
36328;BME280;22354;50.012;8.264;2022-10-16T03:55:50;100314.00;;;14.31;100.00
36328;BME280;22354;50.012;8.264;2022-10-16T03:58:16;100312.75;;;14.41;100.00
36328;BME280;22354;50.012;8.264;2022-10-16T04:00:45;100323.72;;;14.40;100.00
36328;BME280;22354;50.012;8.264;2022-10-16T04:03:11;100329.94;;;14.40;100.00
36328;BME280;22354;50.012;8.264;2022-10-16T04:05:36;100327.16;;;14.34;100.00
36328;BME280;22354;50.012;8.264;2022-10-16T04:08:01;100324.44;;;14.34;100.00
36328;BME280;22354;50.012;8.264;2022-10-16T04:10:27;100319.41;;;14.31;100.00
36328;BME280;22354;50.012;8.264;2022-10-16T04:12:52;100316.88;;;14.29;100.00
36328;BME280;22354;50.012;8.264;2022-10-16T04:15:21;100334.53;;;14.32;100.00
36328;BME280;22354;50.012;8.264;2022-10-16T04:17:46;100329.84;;;14.34;100.00
36328;BME280;22354;50.012;8.264;2022-10-16T04:20:12;100342.63;;;14.32;100.00
36328;BME280;22354;50.012;8.264;2022-10-16T04:22:37;100335.56;;;14.31;100.00
36328;BME280;22354;50.012;8.264;2022-10-16T04:25:02;100339.94;;;14.32;100.00
36328;BME280;22354;50.012;8.264;2022-10-16T04:27:27;100345.31;;;14.32;100.00
36328;BME280;22354;50.012;8.264;2022-10-16T04:29:53;100332.72;;;14.32;100.00
36328;BME280;22354;50.012;8.264;2022-10-16T04:32:18;100345.81;;;14.35;100.00
36328;BME280;22354;50.012;8.264;2022-10-16T04:34:44;100348.28;;;14.45;100.00
36328;BME280;22354;50.012;8.264;2022-10-16T04:37:09;100357.06;;;14.39;100.00
36328;BME280;22354;50.012;8.264;2022-10-16T04:39:34;100352.84;;;14.44;100.00
36328;BME280;22354;50.012;8.264;2022-10-16T04:42:00;100350.66;;;14.40;100.00
36328;BME280;22354;50.012;8.264;2022-10-16T04:44:25;100355.59;;;14.36;100.00
36328;BME280;22354;50.012;8.264;2022-10-16T04:46:50;100369.00;;;14.44;100.00
36328;BME280;22354;50.012;8.264;2022-10-16T04:49:16;100365.47;;;14.44;100.00
36328;BME280;22354;50.012;8.264;2022-10-16T04:51:42;100375.91;;;14.47;100.00
36328;BME280;22354;50.012;8.264;2022-10-16T04:54:08;100375.00;;;14.55;100.00
36328;BME280;22354;50.012;8.264;2022-10-16T04:56:33;100383.28;;;14.53;100.00
36328;BME280;22354;50.012;8.264;2022-10-16T04:59:05;100380.28;;;14.48;100.00
36328;BME280;22354;50.012;8.264;2022-10-16T05:01:30;100378.63;;;14.47;100.00
36328;BME280;22354;50.012;8.264;2022-10-16T05:03:55;100392.00;;;14.55;100.00
36328;BME280;22354;50.012;8.264;2022-10-16T05:06:21;100386.16;;;14.43;100.00
36328;BME280;22354;50.012;8.264;2022-10-16T05:08:46;100381.16;;;14.40;100.00
36328;BME280;22354;50.012;8.264;2022-10-16T05:11:11;100380.13;;;14.41;100.00
36328;BME280;22354;50.012;8.264;2022-10-16T05:13:37;100375.22;;;14.45;100.00
36328;BME280;22354;50.012;8.264;2022-10-16T05:16:02;100379.28;;;14.41;100.00
36328;BME280;22354;50.012;8.264;2022-10-16T05:18:27;100390.25;;;14.39;100.00
36328;BME280;22354;50.012;8.264;2022-10-16T05:20:53;100383.56;;;14.35;100.00
36328;BME280;22354;50.012;8.264;2022-10-16T05:23:18;100379.00;;;14.36;100.00
36328;BME280;22354;50.012;8.264;2022-10-16T05:25:43;100380.19;;;14.33;100.00
36328;BME280;22354;50.012;8.264;2022-10-16T05:28:16;100381.31;;;14.39;100.00
36328;BME280;22354;50.012;8.264;2022-10-16T05:30:41;100375.94;;;14.39;100.00
36328;BME280;22354;50.012;8.264;2022-10-16T05:33:06;100388.03;;;14.43;100.00
36328;BME280;22354;50.012;8.264;2022-10-16T05:35:33;100384.34;;;14.44;100.00
36328;BME280;22354;50.012;8.264;2022-10-16T05:37:58;100389.50;;;14.54;100.00
36328;BME280;22354;50.012;8.264;2022-10-16T05:40:24;100402.69;;;14.49;100.00
36328;BME280;22354;50.012;8.264;2022-10-16T05:42:49;100409.88;;;14.56;100.00
36328;BME280;22354;50.012;8.264;2022-10-16T05:45:14;100419.34;;;14.52;100.00
36328;BME280;22354;50.012;8.264;2022-10-16T05:47:40;100425.25;;;14.70;100.00
36328;BME280;22354;50.012;8.264;2022-10-16T05:50:05;100427.72;;;14.80;100.00
36328;BME280;22354;50.012;8.264;2022-10-16T05:52:31;100437.00;;;14.78;100.00
36328;BME280;22354;50.012;8.264;2022-10-16T05:54:56;100444.41;;;14.61;100.00
36328;BME280;22354;50.012;8.264;2022-10-16T05:57:21;100450.00;;;14.51;100.00
36328;BME280;22354;50.012;8.264;2022-10-16T05:59:46;100443.31;;;14.47;100.00
36328;BME280;22354;50.012;8.264;2022-10-16T06:02:13;100443.97;;;14.41;100.00
36328;BME280;22354;50.012;8.264;2022-10-16T06:04:38;100452.91;;;14.41;100.00
36328;BME280;22354;50.012;8.264;2022-10-16T06:07:03;100452.91;;;14.41;100.00
36328;BME280;22354;50.012;8.264;2022-10-16T06:09:29;100452.72;;;14.43;100.00
36328;BME280;22354;50.012;8.264;2022-10-16T06:11:54;100452.41;;;14.46;100.00
36328;BME280;22354;50.012;8.264;2022-10-16T06:14:19;100451.72;;;14.44;100.00
36328;BME280;22354;50.012;8.264;2022-10-16T06:16:44;100461.16;;;14.48;100.00
36328;BME280;22354;50.012;8.264;2022-10-16T06:19:10;100451.72;;;14.44;100.00
36328;BME280;22354;50.012;8.264;2022-10-16T06:21:35;100453.25;;;14.47;100.00
36328;BME280;22354;50.012;8.264;2022-10-16T06:24:00;100445.31;;;14.45;100.00
36328;BME280;22354;50.012;8.264;2022-10-16T06:26:28;100444.97;;;14.48;100.00
36328;BME280;22354;50.012;8.264;2022-10-16T06:28:55;100441.78;;;14.44;100.00
36328;BME280;22354;50.012;8.264;2022-10-16T06:31:21;100436.63;;;14.35;100.00
36328;BME280;22354;50.012;8.264;2022-10-16T06:33:50;100439.63;;;14.32;100.00
36328;BME280;22354;50.012;8.264;2022-10-16T06:36:16;100443.03;;;14.34;100.00
36328;BME280;22354;50.012;8.264;2022-10-16T06:38:43;100447.91;;;14.30;100.00
36328;BME280;22354;50.012;8.264;2022-10-16T06:41:11;100450.13;;;14.27;100.00
36328;BME280;22354;50.012;8.264;2022-10-16T06:43:37;100454.31;;;14.29;100.00
36328;BME280;22354;50.012;8.264;2022-10-16T06:46:04;100457.00;;;14.29;100.00
36328;BME280;22354;50.012;8.264;2022-10-16T06:48:30;100448.59;;;14.32;100.00
36328;BME280;22354;50.012;8.264;2022-10-16T06:53:31;100442.34;;;14.32;100.00
36328;BME280;22354;50.012;8.264;2022-10-16T06:55:57;100458.34;;;14.33;100.00
36328;BME280;22354;50.012;8.264;2022-10-16T06:58:22;100456.69;;;14.32;100.00
36328;BME280;22354;50.012;8.264;2022-10-16T07:00:48;100464.91;;;14.31;100.00
36328;BME280;22354;50.012;8.264;2022-10-16T07:03:14;100464.91;;;14.31;100.00
36328;BME280;22354;50.012;8.264;2022-10-16T07:05:40;100462.41;;;14.29;100.00
36328;BME280;22354;50.012;8.264;2022-10-16T07:08:06;100455.81;;;14.32;100.00
36328;BME280;22354;50.012;8.264;2022-10-16T07:10:33;100451.78;;;14.28;100.00
36328;BME280;22354;50.012;8.264;2022-10-16T07:12:58;100469.63;;;14.29;100.00
36328;BME280;22354;50.012;8.264;2022-10-16T07:15:24;100478.38;;;14.31;100.00
36328;BME280;22354;50.012;8.264;2022-10-16T07:17:50;100474.53;;;14.33;100.00
36328;BME280;22354;50.012;8.264;2022-10-16T07:20:15;100488.66;;;14.35;100.00
36328;BME280;22354;50.012;8.264;2022-10-16T07:22:41;100486.78;;;14.44;100.00
36328;BME280;22354;50.012;8.264;2022-10-16T07:25:06;100484.22;;;14.42;100.00
36328;BME280;22354;50.012;8.264;2022-10-16T07:27:32;100499.56;;;14.42;100.00
36328;BME280;22354;50.012;8.264;2022-10-16T07:29:57;100502.78;;;14.45;100.00
36328;BME280;22354;50.012;8.264;2022-10-16T07:32:22;100502.63;;;14.47;100.00
36328;BME280;22354;50.012;8.264;2022-10-16T07:34:48;100503.63;;;14.46;100.00
36328;BME280;22354;50.012;8.264;2022-10-16T07:37:14;100519.44;;;14.49;100.00
36328;BME280;22354;50.012;8.264;2022-10-16T07:39:39;100516.38;;;14.52;100.00
36328;BME280;22354;50.012;8.264;2022-10-16T07:42:04;100516.88;;;14.56;100.00
36328;BME280;22354;50.012;8.264;2022-10-16T07:44:29;100515.66;;;14.58;100.00
36328;BME280;22354;50.012;8.264;2022-10-16T07:46:55;100512.31;;;14.56;100.00
36328;BME280;22354;50.012;8.264;2022-10-16T07:49:20;100520.22;;;14.58;100.00
36328;BME280;22354;50.012;8.264;2022-10-16T07:51:45;100522.75;;;14.59;100.00
36328;BME280;22354;50.012;8.264;2022-10-16T07:54:11;100528.63;;;14.63;100.00
36328;BME280;22354;50.012;8.264;2022-10-16T07:56:36;100543.97;;;14.62;100.00
36328;BME280;22354;50.012;8.264;2022-10-16T07:59:01;100543.78;;;14.64;100.00
36328;BME280;22354;50.012;8.264;2022-10-16T08:01:27;100545.28;;;14.66;100.00
36328;BME280;22354;50.012;8.264;2022-10-16T08:03:52;100558.59;;;14.68;100.00
36328;BME280;22354;50.012;8.264;2022-10-16T08:06:19;100554.53;;;14.72;100.00
36328;BME280;22354;50.012;8.264;2022-10-16T08:08:45;100564.50;;;14.71;100.00
36328;BME280;22354;50.012;8.264;2022-10-16T08:11:10;100570.88;;;14.70;100.00
36328;BME280;22354;50.012;8.264;2022-10-16T08:13:36;100572.72;;;14.70;100.00
36328;BME280;22354;50.012;8.264;2022-10-16T08:16:02;100576.13;;;14.72;100.00
36328;BME280;22354;50.012;8.264;2022-10-16T08:18:33;100573.91;;;14.75;100.00
36328;BME280;22354;50.012;8.264;2022-10-16T08:20:59;100573.41;;;14.72;100.00
36328;BME280;22354;50.012;8.264;2022-10-16T08:23:25;100580.31;;;14.74;100.00
36328;BME280;22354;50.012;8.264;2022-10-16T08:25:53;100583.66;;;14.77;100.00
36328;BME280;22354;50.012;8.264;2022-10-16T08:28:19;100584.50;;;14.77;100.00
36328;BME280;22354;50.012;8.264;2022-10-16T08:30:44;100589.19;;;14.83;100.00
36328;BME280;22354;50.012;8.264;2022-10-16T08:33:09;100584.28;;;14.87;100.00
36328;BME280;22354;50.012;8.264;2022-10-16T08:35:35;100594.72;;;14.90;100.00
36328;BME280;22354;50.012;8.264;2022-10-16T08:38:03;100595.34;;;15.00;100.00
36328;BME280;22354;50.012;8.264;2022-10-16T08:40:30;100597.97;;;15.08;100.00
36328;BME280;22354;50.012;8.264;2022-10-16T08:43:09;100605.16;;;14.93;100.00
36328;BME280;22354;50.012;8.264;2022-10-16T08:45:48;100609.00;;;14.98;100.00
36328;BME280;22354;50.012;8.264;2022-10-16T08:48:20;100615.91;;;15.01;100.00
36328;BME280;22354;50.012;8.264;2022-10-16T08:50:51;100626.16;;;15.05;100.00
36328;BME280;22354;50.012;8.264;2022-10-16T08:53:23;100628.03;;;14.97;100.00
36328;BME280;22354;50.012;8.264;2022-10-16T08:55:52;100630.09;;;14.95;100.00
36328;BME280;22354;50.012;8.264;2022-10-16T08:58:23;100643.38;;;14.96;100.00
36328;BME280;22354;50.012;8.264;2022-10-16T09:00:56;100647.63;;;14.99;100.00
36328;BME280;22354;50.012;8.264;2022-10-16T09:03:45;100648.78;;;14.96;100.00
36328;BME280;22354;50.012;8.264;2022-10-16T09:06:29;100645.25;;;14.96;100.00
36328;BME280;22354;50.012;8.264;2022-10-16T09:11:44;100671.56;;;14.94;100.00
36328;BME280;22354;50.012;8.264;2022-10-16T09:19:51;100683.38;;;14.93;100.00
36328;BME280;22354;50.012;8.264;2022-10-16T09:22:27;100678.81;;;14.93;100.00
36328;BME280;22354;50.012;8.264;2022-10-16T09:24:55;100686.91;;;14.93;100.00
36328;BME280;22354;50.012;8.264;2022-10-16T09:27:23;100682.34;;;14.94;100.00
36328;BME280;22354;50.012;8.264;2022-10-16T09:29:48;100687.75;;;14.94;100.00
36328;BME280;22354;50.012;8.264;2022-10-16T09:32:17;100692.13;;;14.95;100.00
36328;BME280;22354;50.012;8.264;2022-10-16T09:34:53;100691.09;;;14.96;100.00
36328;BME280;22354;50.012;8.264;2022-10-16T09:37:22;100695.19;;;14.92;100.00
36328;BME280;22354;50.012;8.264;2022-10-16T09:39:50;100694.88;;;14.87;100.00
36328;BME280;22354;50.012;8.264;2022-10-16T09:42:18;100689.66;;;14.85;100.00
36328;BME280;22354;50.012;8.264;2022-10-16T09:44:48;100691.84;;;14.82;100.00
36328;BME280;22354;50.012;8.264;2022-10-16T09:47:21;100688.09;;;14.91;100.00
36328;BME280;22354;50.012;8.264;2022-10-16T09:49:59;100686.44;;;14.90;100.00
36328;BME280;22354;50.012;8.264;2022-10-16T09:52:27;100697.31;;;15.04;100.00
36328;BME280;22354;50.012;8.264;2022-10-16T09:54:56;100694.78;;;15.11;100.00
36328;BME280;22354;50.012;8.264;2022-10-16T09:57:22;100694.06;;;15.17;100.00
36328;BME280;22354;50.012;8.264;2022-10-16T09:59:53;100690.16;;;15.20;100.00
36328;BME280;22354;50.012;8.264;2022-10-16T10:02:31;100700.44;;;15.24;100.00
36328;BME280;22354;50.012;8.264;2022-10-16T10:04:59;100703.72;;;15.34;100.00
36328;BME280;22354;50.012;8.264;2022-10-16T10:07:27;100709.63;;;15.38;100.00
36328;BME280;22354;50.012;8.264;2022-10-16T10:09:55;100711.50;;;15.38;100.00
36328;BME280;22354;50.012;8.264;2022-10-16T10:12:28;100716.47;;;15.49;100.00
36328;BME280;22354;50.012;8.264;2022-10-16T10:14:56;100726.28;;;15.50;100.00
36328;BME280;22354;50.012;8.264;2022-10-16T10:17:25;100726.66;;;15.70;100.00
36328;BME280;22354;50.012;8.264;2022-10-16T10:19:57;100735.91;;;15.75;100.00
36328;BME280;22354;50.012;8.264;2022-10-16T10:22:32;100733.09;;;15.69;100.00
36328;BME280;22354;50.012;8.264;2022-10-16T10:30:56;100733.47;;;15.57;100.00
36328;BME280;22354;50.012;8.264;2022-10-16T10:36:20;100733.84;;;15.54;100.00
36328;BME280;22354;50.012;8.264;2022-10-16T10:47:45;100740.38;;;15.91;100.00
36328;BME280;22354;50.012;8.264;2022-10-16T10:52:53;100764.00;;;16.12;100.00
36328;BME280;22354;50.012;8.264;2022-10-16T11:01:14;100794.63;;;16.27;100.00
36328;BME280;22354;50.012;8.264;2022-10-16T11:06:20;100798.72;;;16.23;100.00
36328;BME280;22354;50.012;8.264;2022-10-16T11:08:53;100808.81;;;16.06;100.00
36328;BME280;22354;50.012;8.264;2022-10-16T11:11:27;100810.38;;;16.01;100.00
36328;BME280;22354;50.012;8.264;2022-10-16T11:14:19;100801.91;;;16.04;100.00
36328;BME280;22354;50.012;8.264;2022-10-16T11:16:51;100797.53;;;16.03;100.00
36328;BME280;22354;50.012;8.264;2022-10-16T11:22:03;100795.59;;;16.34;100.00
36328;BME280;22354;50.012;8.264;2022-10-16T11:24:42;100799.91;;;16.43;100.00
36328;BME280;22354;50.012;8.264;2022-10-16T11:27:15;100805.19;;;16.37;100.00
36328;BME280;22354;50.012;8.264;2022-10-16T11:29:50;100809.06;;;16.42;100.00
36328;BME280;22354;50.012;8.264;2022-10-16T11:32:25;100814.56;;;16.49;100.00
36328;BME280;22354;50.012;8.264;2022-10-16T11:34:57;100810.94;;;16.57;100.00
36328;BME280;22354;50.012;8.264;2022-10-16T11:37:39;100817.63;;;16.69;100.00
36328;BME280;22354;50.012;8.264;2022-10-16T11:40:19;100818.31;;;16.63;100.00
36328;BME280;22354;50.012;8.264;2022-10-16T11:42:52;100816.94;;;16.67;100.00
36328;BME280;22354;50.012;8.264;2022-10-16T11:45:36;100814.09;;;16.68;100.00
36328;BME280;22354;50.012;8.264;2022-10-16T11:51:42;100812.72;;;16.64;100.00
36328;BME280;22354;50.012;8.264;2022-10-16T11:54:20;100822.75;;;16.78;100.00
36328;BME280;22354;50.012;8.264;2022-10-16T11:56:49;100817.72;;;16.90;100.00
36328;BME280;22354;50.012;8.264;2022-10-16T11:59:36;100817.72;;;16.90;100.00
36328;BME280;22354;50.012;8.264;2022-10-16T12:05:21;100811.88;;;17.16;100.00
36328;BME280;22354;50.012;8.264;2022-10-16T12:08:09;100812.69;;;17.17;100.00
36328;BME280;22354;50.012;8.264;2022-10-16T12:10:39;100813.91;;;17.14;100.00
36328;BME280;22354;50.012;8.264;2022-10-16T12:18:43;100822.81;;;17.23;100.00
36328;BME280;22354;50.012;8.264;2022-10-16T12:21:09;100827.00;;;17.25;100.00
36328;BME280;22354;50.012;8.264;2022-10-16T12:23:50;100823.06;;;17.28;100.00
36328;BME280;22354;50.012;8.264;2022-10-16T12:26:26;100832.03;;;17.28;100.00
36328;BME280;22354;50.012;8.264;2022-10-16T12:28:53;100836.22;;;17.31;100.00
36328;BME280;22354;50.012;8.264;2022-10-16T12:31:19;100834.19;;;17.33;100.00
36328;BME280;22354;50.012;8.264;2022-10-16T12:34:02;100835.75;;;17.42;100.00
36328;BME280;22354;50.012;8.264;2022-10-16T12:36:31;100847.72;;;17.48;100.00
36328;BME280;22354;50.012;8.264;2022-10-16T12:38:57;100844.19;;;17.47;100.00
36328;BME280;22354;50.012;8.264;2022-10-16T12:43:51;100832.59;;;17.38;100.00
36328;BME280;22354;50.012;8.264;2022-10-16T12:48:43;100838.13;;;17.45;100.00
36328;BME280;22354;50.012;8.264;2022-10-16T12:54:19;100832.38;;;17.55;100.00
36328;BME280;22354;50.012;8.264;2022-10-16T13:00:35;100827.78;;;17.85;100.00
36328;BME280;22354;50.012;8.264;2022-10-16T13:07:51;100854.25;;;18.04;100.00
36328;BME280;22354;50.012;8.264;2022-10-16T13:10:31;100854.34;;;18.11;100.00
36328;BME280;22354;50.012;8.264;2022-10-16T13:16:08;100861.13;;;18.21;100.00
36328;BME280;22354;50.012;8.264;2022-10-16T13:22:00;100863.81;;;18.21;100.00
36328;BME280;22354;50.012;8.264;2022-10-16T13:27:34;100854.78;;;18.14;100.00
36328;BME280;22354;50.012;8.264;2022-10-16T13:30:21;100861.13;;;18.21;100.00
36328;BME280;22354;50.012;8.264;2022-10-16T13:32:49;100852.22;;;18.27;100.00
36328;BME280;22354;50.012;8.264;2022-10-16T13:35:23;100846.78;;;18.27;100.00
36328;BME280;22354;50.012;8.264;2022-10-16T13:37:49;100847.84;;;18.26;100.00
36328;BME280;22354;50.012;8.264;2022-10-16T13:40:23;100837.53;;;18.22;100.00
36328;BME280;22354;50.012;8.264;2022-10-16T13:42:50;100841.88;;;18.16;100.00
36328;BME280;22354;50.012;8.264;2022-10-16T13:45:21;100836.25;;;18.18;100.00
36328;BME280;22354;50.012;8.264;2022-10-16T13:47:46;100843.03;;;18.07;100.00
36328;BME280;22354;50.012;8.264;2022-10-16T13:50:14;100827.53;;;18.01;100.00
36328;BME280;22354;50.012;8.264;2022-10-16T13:52:39;100819.13;;;17.96;100.00
36328;BME280;22354;50.012;8.264;2022-10-16T13:55:14;100821.19;;;17.94;100.00
36328;BME280;22354;50.012;8.264;2022-10-16T13:57:40;100814.19;;;18.00;100.00
36328;BME280;22354;50.012;8.264;2022-10-16T14:00:21;100814.63;;;18.03;100.00
36328;BME280;22354;50.012;8.264;2022-10-16T14:02:53;100828.91;;;18.12;100.00
36328;BME280;22354;50.012;8.264;2022-10-16T14:05:20;100834.84;;;18.22;100.00
36328;BME280;22354;50.012;8.264;2022-10-16T14:07:49;100835.13;;;18.27;100.00
36328;BME280;22354;50.012;8.264;2022-10-16T14:10:27;100841.81;;;18.31;100.00
36328;BME280;22354;50.012;8.264;2022-10-16T14:13:00;100836.97;;;18.26;100.00
36328;BME280;22354;50.012;8.264;2022-10-16T14:15:26;100831.16;;;18.30;100.00
36328;BME280;22354;50.012;8.264;2022-10-16T14:17:52;100837.03;;;18.33;100.00
36328;BME280;22354;50.012;8.264;2022-10-16T14:20:18;100834.78;;;18.37;100.00